Time,TemperatureF,DewpointF,PressureIn,WindDirection,WindDirectionDegrees,WindSpeedMPH,WindSpeedGustMPH,Humidity,HourlyPrecipIn,Conditions,Clouds,dailyrainin,SoftwareType,DateUTC
2013-08-04 00:01:00,64.4,54.4,29.99,West,281,0.0,2.8,70,0.00,,CLR,0.00,VWS V13.01,2013-08-04 04:01:00,
2013-08-04 00:06:00,63.9,54.3,29.99,West,281,0.0,0.0,71,0.00,,CLR,0.00,VWS V13.01,2013-08-04 04:06:00,
2013-08-04 00:12:00,63.7,54.1,29.99,West,281,0.0,0.0,71,0.00,,CLR,0.00,VWS V13.01,2013-08-04 04:12:00,
2013-08-04 00:17:00,63.5,53.9,29.99,WNW,287,0.0,0.0,71,0.00,,CLR,0.00,VWS V13.01,2013-08-04 04:17:00,
2013-08-04 00:22:00,63.3,54.2,29.99,WNW,287,0.0,0.0,72,0.00,,CLR,0.00,VWS V13.01,2013-08-04 04:22:00,
2013-08-04 00:27:00,63.3,54.2,29.99,WNW,287,0.0,0.0,72,0.00,,CLR,0.00,VWS V13.01,2013-08-04 04:27:00,
2013-08-04 00:32:00,63.1,54.3,29.99,WNW,287,0.0,2.8,73,0.00,,CLR,0.00,VWS V13.01,2013-08-04 04:32:00,
2013-08-04 00:37:00,63.1,54.3,29.99,WNW,287,0.0,0.0,73,0.00,,CLR,0.00,VWS V13.01,2013-08-04 04:37:00,
2013-08-04 00:42:00,63.0,54.2,29.99,West,272,2.8,3.9,73,0.00,,CLR,0.00,VWS V13.01,2013-08-04 04:42:00,
2013-08-04 00:47:00,63.0,54.5,29.99,West,272,0.0,0.0,74,0.00,,CLR,0.00,VWS V13.01,2013-08-04 04:47:00,
2013-08-04 00:52:00,63.0,54.5,29.99,WNW,290,0.0,3.4,74,0.00,,CLR,0.00,VWS V13.01,2013-08-04 04:52:00,
2013-08-04 00:57:00,62.8,54.4,29.99,WSW,256,3.9,3.9,74,0.00,,CLR,0.00,VWS V13.01,2013-08-04 04:57:00,
2013-08-04 01:02:00,62.8,54.8,29.99,West,260,0.0,3.9,75,0.00,,SCT037,0.00,VWS V13.01,2013-08-04 05:02:00,
2013-08-04 01:07:00,62.6,54.6,29.99,West,260,0.0,0.0,75,0.00,,SCT037,0.00,VWS V13.01,2013-08-04 05:07:00,
2013-08-04 01:12:00,62.6,54.6,29.99,West,260,0.0,0.0,75,0.00,,SCT037,0.00,VWS V13.01,2013-08-04 05:12:00,
2013-08-04 01:17:00,62.4,54.8,29.99,West,260,0.0,0.0,76,0.00,,CLR,0.00,VWS V13.01,2013-08-04 05:17:00,
2013-08-04 01:22:00,62.2,54.2,29.99,West,260,0.0,0.0,75,0.00,,CLR,0.00,VWS V13.01,2013-08-04 05:22:00,
2013-08-04 01:27:00,62.1,54.4,29.99,West,260,0.0,0.0,76,0.00,,CLR,0.00,VWS V13.01,2013-08-04 05:27:00,
2013-08-04 01:32:00,61.9,54.2,29.99,West,261,0.0,0.0,76,0.00,,CLR,0.00,VWS V13.01,2013-08-04 05:32:00,
2013-08-04 01:37:00,61.9,54.6,29.99,West,274,0.0,0.0,77,0.00,,CLR,0.00,VWS V13.01,2013-08-04 05:37:00,
2013-08-04 01:42:00,61.9,54.6,29.99,West,271,2.8,3.4,77,0.00,,CLR,0.00,VWS V13.01,2013-08-04 05:42:00,
2013-08-04 01:47:00,61.9,55.0,29.99,West,271,3.4,3.9,78,0.00,,CLR,0.00,VWS V13.01,2013-08-04 05:47:00,
2013-08-04 01:52:00,61.9,55.0,29.99,West,271,0.0,0.0,78,0.00,,CLR,0.00,VWS V13.01,2013-08-04 05:52:00,
2013-08-04 01:57:00,61.9,55.0,29.99,West,271,0.0,0.0,78,0.00,,CLR,0.00,VWS V13.01,2013-08-04 05:57:00,
2013-08-04 02:02:00,61.9,55.0,29.99,West,271,3.4,3.4,78,0.00,,CLR,0.00,VWS V13.01,2013-08-04 06:02:00,
2013-08-04 02:07:00,61.9,55.0,29.99,West,262,3.4,3.9,78,0.00,,CLR,0.00,VWS V13.01,2013-08-04 06:07:00,
2013-08-04 02:12:00,61.9,55.7,29.99,West,261,3.4,3.4,80,0.00,,CLR,0.00,VWS V13.01,2013-08-04 06:12:00,
2013-08-04 02:17:00,61.9,56.0,29.99,West,273,3.9,4.5,81,0.00,,CLR,0.00,VWS V13.01,2013-08-04 06:17:00,
2013-08-04 02:22:00,61.9,56.0,29.99,West,275,2.8,3.4,81,0.00,,SCT075,0.00,VWS V13.01,2013-08-04 06:22:00,
2013-08-04 02:27:00,61.7,56.2,29.99,West,275,2.8,3.4,82,0.00,,SCT075,0.00,VWS V13.01,2013-08-04 06:27:00,
2013-08-04 02:32:00,61.7,56.2,29.99,West,275,0.0,0.0,82,0.00,,SCT075,0.00,VWS V13.01,2013-08-04 06:32:00,
2013-08-04 02:37:00,61.5,56.0,29.99,West,276,0.0,0.0,82,0.00,,SCT075,0.00,VWS V13.01,2013-08-04 06:37:00,
2013-08-04 02:42:00,61.5,56.0,29.99,West,275,0.0,0.0,82,0.00,,BKN075,0.00,VWS V13.01,2013-08-04 06:42:00,
2013-08-04 02:47:00,61.3,55.8,29.99,West,275,0.0,0.0,82,0.00,,BKN075,0.00,VWS V13.01,2013-08-04 06:47:00,
2013-08-04 02:52:00,61.3,56.1,29.99,West,275,0.0,0.0,83,0.00,,BKN075,0.00,VWS V13.01,2013-08-04 06:52:00,
2013-08-04 02:57:00,61.3,56.1,29.99,West,276,0.0,0.0,83,0.00,,BKN075,0.00,VWS V13.01,2013-08-04 06:57:00,
2013-08-04 03:02:00,61.3,56.1,29.99,West,276,0.0,0.0,83,0.00,,BKN075,0.00,VWS V13.01,2013-08-04 07:02:00,
2013-08-04 03:07:00,61.2,56.0,29.99,West,276,0.0,0.0,83,0.00,,BKN075,0.00,VWS V13.01,2013-08-04 07:07:00,
2013-08-04 03:12:00,61.3,56.1,29.96,West,276,0.0,0.0,83,0.00,,BKN075,0.00,VWS V13.01,2013-08-04 07:12:00,
2013-08-04 03:17:00,61.3,56.5,29.96,West,275,0.0,0.0,84,0.00,,SCT075,0.00,VWS V13.01,2013-08-04 07:17:00,
2013-08-04 03:22:00,61.2,56.0,29.96,West,275,0.0,0.0,83,0.00,,SCT075,0.00,VWS V13.01,2013-08-04 07:22:00,
2013-08-04 03:27:00,61.2,56.3,29.99,West,275,0.0,0.0,84,0.00,,SCT075,0.00,VWS V13.01,2013-08-04 07:27:00,
2013-08-04 03:32:00,61.2,56.3,29.99,West,276,0.0,0.0,84,0.00,,SCT075,0.00,VWS V13.01,2013-08-04 07:32:00,
2013-08-04 03:37:00,61.0,56.1,29.99,West,276,0.0,0.0,84,0.00,,SCT075,0.00,VWS V13.01,2013-08-04 07:37:00,
2013-08-04 03:42:00,61.0,56.1,29.96,West,275,0.0,0.0,84,0.00,,CLR,0.00,VWS V13.01,2013-08-04 07:42:00,
2013-08-04 03:47:00,61.0,56.5,29.96,West,275,0.0,0.0,85,0.00,,CLR,0.00,VWS V13.01,2013-08-04 07:47:00,
2013-08-04 03:52:00,61.0,56.5,29.96,West,275,0.0,0.0,85,0.00,,CLR,0.00,VWS V13.01,2013-08-04 07:52:00,
2013-08-04 03:57:00,61.0,56.5,29.99,West,276,0.0,0.0,85,0.00,,CLR,0.00,VWS V13.01,2013-08-04 07:57:00,
2013-08-04 04:02:00,60.8,56.3,29.99,West,276,0.0,0.0,85,0.00,,CLR,0.00,VWS V13.01,2013-08-04 08:02:00,
2013-08-04 04:07:00,60.8,56.3,29.99,West,276,0.0,0.0,85,0.00,,CLR,0.00,VWS V13.01,2013-08-04 08:07:00,
2013-08-04 04:12:00,60.6,56.1,29.99,West,276,0.0,0.0,85,0.00,,CLR,0.00,VWS V13.01,2013-08-04 08:12:00,
2013-08-04 04:17:00,60.4,55.9,29.99,West,276,0.0,0.0,85,0.00,,CLR,0.00,VWS V13.01,2013-08-04 08:17:00,
2013-08-04 04:22:00,60.4,56.2,29.99,West,276,0.0,0.0,86,0.00,,,0.00,VWS V13.01,2013-08-04 08:22:00,
2013-08-04 04:27:00,60.3,56.1,29.99,West,276,0.0,0.0,86,0.00,,,0.00,VWS V13.01,2013-08-04 08:27:00,
2013-08-04 04:32:00,60.3,56.1,29.99,West,276,0.0,0.0,86,0.00,,,0.00,VWS V13.01,2013-08-04 08:32:00,
2013-08-04 04:37:00,60.3,56.4,29.99,West,275,0.0,0.0,87,0.00,,,0.00,VWS V13.01,2013-08-04 08:37:00,
2013-08-04 04:42:00,60.3,56.4,29.99,West,275,0.0,0.0,87,0.00,,,0.00,VWS V13.01,2013-08-04 08:42:00,
2013-08-04 04:47:00,60.3,56.4,29.99,West,275,0.0,0.0,87,0.00,,,0.00,VWS V13.01,2013-08-04 08:47:00,
2013-08-04 04:52:00,60.1,55.9,29.99,West,276,0.0,0.0,86,0.00,,,0.00,VWS V13.01,2013-08-04 08:52:00,
2013-08-04 04:57:00,60.1,56.2,29.99,West,276,0.0,0.0,87,0.00,,,0.00,VWS V13.01,2013-08-04 08:57:00,
2013-08-04 05:02:00,59.7,55.5,29.99,West,276,0.0,0.0,86,0.00,,,0.00,VWS V13.01,2013-08-04 09:02:00,
2013-08-04 05:07:00,59.5,55.3,29.99,West,276,0.0,0.0,86,0.00,,,0.00,VWS V13.01,2013-08-04 09:07:00,
2013-08-04 05:12:00,59.4,55.5,29.99,West,275,0.0,0.0,87,0.00,,,0.00,VWS V13.01,2013-08-04 09:12:00,
2013-08-04 05:17:00,59.4,55.5,29.99,West,275,0.0,0.0,87,0.00,,,0.00,VWS V13.01,2013-08-04 09:17:00,
2013-08-04 05:22:00,59.2,55.3,29.99,West,276,0.0,0.0,87,0.00,,,0.00,VWS V13.01,2013-08-04 09:22:00,
2013-08-04 05:27:00,59.0,55.1,29.99,West,275,0.0,0.0,87,0.00,,,0.00,VWS V13.01,2013-08-04 09:27:00,
2013-08-04 05:32:00,58.8,55.3,29.99,West,276,0.0,0.0,88,0.00,,,0.00,VWS V13.01,2013-08-04 09:32:00,
2013-08-04 05:37:00,58.6,55.1,29.99,West,276,0.0,0.0,88,0.00,,,0.00,VWS V13.01,2013-08-04 09:37:00,
2013-08-04 05:42:00,58.6,55.1,29.99,West,276,0.0,0.0,88,0.00,,,0.00,VWS V13.01,2013-08-04 09:42:00,
2013-08-04 05:47:00,58.6,55.1,29.99,West,276,0.0,0.0,88,0.00,,,0.00,VWS V13.01,2013-08-04 09:47:00,
2013-08-04 05:52:00,58.6,55.4,29.99,West,275,0.0,0.0,89,0.00,,,0.00,VWS V13.01,2013-08-04 09:52:00,
2013-08-04 05:57:00,58.5,55.2,29.99,West,275,0.0,0.0,89,0.00,,,0.00,VWS V13.01,2013-08-04 09:57:00,
2013-08-04 06:02:00,58.5,55.2,29.99,West,275,0.0,0.0,89,0.00,,,0.00,VWS V13.01,2013-08-04 10:02:00,
2013-08-04 06:07:00,58.3,55.1,29.99,West,275,0.0,0.0,89,0.00,,,0.00,VWS V13.01,2013-08-04 10:07:00,
2013-08-04 06:12:00,58.1,54.9,29.99,West,276,0.0,0.0,89,0.00,,,0.00,VWS V13.01,2013-08-04 10:12:00,
2013-08-04 06:17:00,58.1,54.9,29.99,West,275,0.0,0.0,89,0.00,,,0.00,VWS V13.01,2013-08-04 10:17:00,
2013-08-04 06:22:00,57.9,54.7,29.99,WNW,299,0.0,0.0,89,0.00,,,0.00,VWS V13.01,2013-08-04 10:22:00,
2013-08-04 06:27:00,58.1,55.2,29.99,WNW,299,0.0,0.0,90,0.00,,,0.00,VWS V13.01,2013-08-04 10:27:00,
2013-08-04 06:32:00,58.1,55.2,29.99,WNW,299,0.0,0.0,90,0.00,,,0.00,VWS V13.01,2013-08-04 10:32:00,
2013-08-04 06:37:00,57.9,55.0,29.99,WNW,299,0.0,0.0,90,0.00,,,0.00,VWS V13.01,2013-08-04 10:37:00,
2013-08-04 06:42:00,58.1,55.2,29.99,WNW,299,0.0,0.0,90,0.00,,,0.00,VWS V13.01,2013-08-04 10:42:00,
2013-08-04 06:47:00,58.6,55.7,29.99,WNW,299,0.0,0.0,90,0.00,,,0.00,VWS V13.01,2013-08-04 10:47:00,
2013-08-04 06:52:00,59.2,56.0,29.99,WNW,299,0.0,0.0,89,0.00,,,0.00,VWS V13.01,2013-08-04 10:52:00,
2013-08-04 06:57:00,59.9,56.7,29.99,WNW,299,0.0,0.0,89,0.00,,,0.00,VWS V13.01,2013-08-04 10:57:00,
2013-08-04 07:02:00,60.6,57.0,29.99,WNW,299,0.0,0.0,88,0.00,,,0.00,VWS V13.01,2013-08-04 11:02:00,
2013-08-04 07:07:00,61.2,57.3,29.99,WNW,299,0.0,0.0,87,0.00,,,0.00,VWS V13.01,2013-08-04 11:07:00,
2013-08-04 07:12:00,61.9,58.3,30.02,WNW,299,0.0,0.0,88,0.00,,,0.00,VWS V13.01,2013-08-04 11:12:00,
2013-08-04 07:17:00,62.8,58.9,30.02,WNW,299,0.0,0.0,87,0.00,,,0.00,VWS V13.01,2013-08-04 11:17:00,
2013-08-04 07:22:00,64.0,60.4,30.02,WNW,299,0.0,0.0,88,0.00,,,0.00,VWS V13.01,2013-08-04 11:22:00,
2013-08-04 07:27:00,64.9,61.0,30.02,WNW,299,0.0,0.0,87,0.00,,,0.00,VWS V13.01,2013-08-04 11:27:00,
2013-08-04 07:32:00,65.8,61.9,30.02,WNW,299,0.0,0.0,87,0.00,,,0.00,VWS V13.01,2013-08-04 11:32:00,
2013-08-04 07:40:00,67.5,63.1,30.02,West,264,3.9,3.9,86,0.00,,,0.00,VWS V13.01,2013-08-04 11:40:00,
2013-08-04 07:45:00,67.6,60.5,30.02,West,270,0.0,0.0,78,0.00,,,0.00,VWS V13.01,2013-08-04 11:45:00,
2013-08-04 07:50:00,68.0,55.8,30.02,West,270,0.0,0.0,65,0.00,,,0.00,VWS V13.01,2013-08-04 11:50:00,
2013-08-04 07:56:00,68.4,58.2,30.02,WNW,289,3.9,3.9,70,0.00,,,0.00,VWS V13.01,2013-08-04 11:56:00,
2013-08-04 08:01:00,68.9,58.7,30.02,WNW,289,0.0,0.0,70,0.00,,,0.00,VWS V13.01,2013-08-04 12:01:00,
2013-08-04 08:05:00,69.6,59.0,30.02,WNW,289,0.0,0.0,69,0.00,,,0.00,VWS V13.01,2013-08-04 12:05:00,
2013-08-04 08:11:00,70.2,57.0,30.02,WNW,289,0.0,0.0,63,0.00,,,0.00,VWS V13.01,2013-08-04 12:11:00,
2013-08-04 08:16:00,70.3,57.2,30.02,North,353,0.0,0.0,63,0.00,,,0.00,VWS V13.01,2013-08-04 12:16:00,
2013-08-04 08:21:00,70.7,57.1,30.02,NNW,345,0.0,0.0,62,0.00,,CLR,0.00,VWS V13.01,2013-08-04 12:21:00,
2013-08-04 08:26:00,71.4,58.6,30.02,NNW,345,0.0,0.0,64,0.00,,CLR,0.00,VWS V13.01,2013-08-04 12:26:00,
2013-08-04 08:30:00,71.6,57.0,30.02,NNW,345,0.0,0.0,60,0.00,,CLR,0.00,VWS V13.01,2013-08-04 12:30:00,
2013-08-04 08:36:00,72.5,57.4,30.02,NNW,345,0.0,0.0,59,0.00,,CLR,0.00,VWS V13.01,2013-08-04 12:36:00,
2013-08-04 08:41:00,73.6,57.9,30.02,NNW,345,0.0,0.0,58,0.00,,CLR,0.00,VWS V13.01,2013-08-04 12:41:00,
2013-08-04 08:46:00,73.8,55.1,30.02,West,265,0.0,0.0,52,0.00,,CLR,0.00,VWS V13.01,2013-08-04 12:46:00,
2013-08-04 08:51:00,73.6,55.4,30.02,WSW,257,0.0,0.0,53,0.00,,CLR,0.00,VWS V13.01,2013-08-04 12:51:00,
2013-08-04 08:56:00,73.9,55.8,30.02,WSW,257,0.0,0.0,53,0.00,,CLR,0.00,VWS V13.01,2013-08-04 12:56:00,
2013-08-04 09:00:00,74.1,55.4,30.02,NE,50,3.9,3.9,52,0.00,,CLR,0.00,VWS V13.01,2013-08-04 13:00:00,
2013-08-04 09:06:00,74.1,55.4,30.02,NNE,29,0.0,0.0,52,0.00,,CLR,0.00,VWS V13.01,2013-08-04 13:06:00,
2013-08-04 09:11:00,74.5,55.2,30.02,NE,37,0.0,3.4,51,0.00,,CLR,0.00,VWS V13.01,2013-08-04 13:11:00,
2013-08-04 09:15:00,74.8,55.5,30.02,ENE,78,3.4,3.4,51,0.00,,CLR,0.00,VWS V13.01,2013-08-04 13:15:00,
2013-08-04 09:21:00,74.8,54.4,30.02,North,0,3.4,4.5,49,0.00,,CLR,0.00,VWS V13.01,2013-08-04 13:21:00,
2013-08-04 09:25:00,74.8,53.8,30.02,North,353,4.5,4.5,48,0.00,,CLR,0.00,VWS V13.01,2013-08-04 13:25:00,
2013-08-04 09:31:00,74.7,53.7,30.02,North,2,5.0,5.0,48,0.00,,CLR,0.00,VWS V13.01,2013-08-04 13:31:00,
2013-08-04 09:36:00,75.0,54.0,30.02,NNE,21,3.9,4.5,48,0.00,,CLR,0.00,VWS V13.01,2013-08-04 13:36:00,
2013-08-04 09:40:00,75.4,53.8,30.02,North,10,5.0,6.2,47,0.00,,CLR,0.00,VWS V13.01,2013-08-04 13:40:00,
2013-08-04 09:46:00,75.2,53.0,30.02,NNW,336,3.4,7.8,46,0.00,,CLR,0.00,VWS V13.01,2013-08-04 13:46:00,
2013-08-04 09:51:00,75.4,53.8,30.02,NE,38,7.3,7.3,47,0.00,,CLR,0.00,VWS V13.01,2013-08-04 13:51:00,
2013-08-04 09:56:00,75.6,53.3,30.02,North,1,3.4,5.0,46,0.00,,CLR,0.00,VWS V13.01,2013-08-04 13:56:00,
2013-08-04 10:01:00,75.6,53.3,30.02,North,9,7.3,7.3,46,0.00,,CLR,0.00,VWS V13.01,2013-08-04 14:01:00,
2013-08-04 10:05:00,75.9,53.7,30.02,WSW,254,5.0,5.0,46,0.00,,CLR,0.00,VWS V13.01,2013-08-04 14:05:00,
2013-08-04 10:11:00,76.6,54.3,30.02,North,3,4.5,4.5,46,0.00,,CLR,0.00,VWS V13.01,2013-08-04 14:11:00,
2013-08-04 10:16:00,76.5,53.6,30.02,North,4,9.5,9.5,45,0.00,,CLR,0.00,VWS V13.01,2013-08-04 14:16:00,
2013-08-04 10:21:00,76.8,54.5,30.02,West,271,0.0,5.0,46,0.00,,CLR,0.00,VWS V13.01,2013-08-04 14:21:00,
2013-08-04 10:26:00,77.5,54.5,30.02,North,3,3.9,6.7,45,0.00,,CLR,0.00,VWS V13.01,2013-08-04 14:26:00,
2013-08-04 10:31:00,78.1,55.0,30.02,West,270,7.3,7.3,45,0.00,,CLR,0.00,VWS V13.01,2013-08-04 14:31:00,
2013-08-04 10:36:00,78.6,55.5,30.02,WSW,258,10.9,10.9,45,0.00,,CLR,0.00,VWS V13.01,2013-08-04 14:36:00,
2013-08-04 10:41:00,78.3,54.0,30.02,West,266,4.5,6.2,43,0.00,,SCT043,0.00,VWS V13.01,2013-08-04 14:41:00,
2013-08-04 10:46:00,75.9,51.8,30.02,NNE,29,6.7,8.9,43,0.00,,SCT043,0.00,VWS V13.01,2013-08-04 14:46:00,
2013-08-04 10:50:00,75.2,51.2,30.02,NNW,337,3.9,10.1,43,0.00,,SCT043,0.00,VWS V13.01,2013-08-04 14:50:00,
2013-08-04 10:56:00,74.7,50.7,30.02,North,10,9.5,14.3,43,0.00,,SCT043,0.00,VWS V13.01,2013-08-04 14:56:00,
2013-08-04 11:01:00,75.0,51.0,30.02,North,353,10.3,11.5,43,0.00,,SCT050,0.00,VWS V13.01,2013-08-04 15:01:00,
2013-08-04 11:06:00,76.5,52.3,30.02,WNW,287,5.6,8.9,43,0.00,,SCT050,0.00,VWS V13.01,2013-08-04 15:06:00,
2013-08-04 11:11:00,77.5,53.3,30.02,North,353,9.5,10.9,43,0.00,,SCT050,0.00,VWS V13.01,2013-08-04 15:11:00,
2013-08-04 11:16:00,77.9,53.6,30.02,North,357,7.3,9.5,43,0.00,,SCT050,0.00,VWS V13.01,2013-08-04 15:16:00,
2013-08-04 11:20:00,77.9,53.6,30.02,North,357,4.5,10.1,43,0.00,,SCT050,0.00,VWS V13.01,2013-08-04 15:20:00,
2013-08-04 11:25:00,78.1,53.8,30.02,North,357,7.3,7.8,43,0.00,,SCT050,0.00,VWS V13.01,2013-08-04 15:25:00,
2013-08-04 11:31:00,77.9,53.6,30.02,NW,320,10.3,10.3,43,0.00,,SCT050,0.00,VWS V13.01,2013-08-04 15:31:00,
2013-08-04 11:36:00,78.1,53.8,30.02,WSW,237,5.0,6.7,43,0.00,,SCT050,0.00,VWS V13.01,2013-08-04 15:36:00,
2013-08-04 11:41:00,78.3,52.0,30.02,NNE,12,7.8,7.8,40,0.00,,SCT055,0.00,VWS V13.01,2013-08-04 15:41:00,
2013-08-04 11:46:00,78.1,53.8,30.02,WSW,258,6.2,6.2,43,0.00,,SCT055,0.00,VWS V13.01,2013-08-04 15:46:00,
2013-08-04 11:51:00,78.6,52.3,30.02,North,353,12.6,12.6,40,0.00,,SCT055,0.00,VWS V13.01,2013-08-04 15:51:00,
2013-08-04 11:55:00,78.6,52.3,30.02,NNE,25,6.2,9.5,40,0.00,,SCT055,0.00,VWS V13.01,2013-08-04 15:55:00,
2013-08-04 12:01:00,79.0,52.6,30.02,NE,45,6.7,8.4,40,0.00,,BKN070,0.00,VWS V13.01,2013-08-04 16:01:00,
2013-08-04 12:06:00,78.8,52.5,30.02,North,0,10.1,13.1,40,0.00,,BKN070,0.00,VWS V13.01,2013-08-04 16:06:00,
2013-08-04 12:10:00,79.0,54.0,30.02,North,353,6.7,7.3,42,0.00,,BKN070,0.00,VWS V13.01,2013-08-04 16:10:00,
2013-08-04 12:16:00,79.0,52.6,30.02,NNW,345,6.2,13.7,40,0.00,,BKN055,0.00,VWS V13.01,2013-08-04 16:16:00,
2013-08-04 12:21:00,78.3,52.0,30.02,North,10,4.5,6.2,40,0.00,,BKN055,0.00,VWS V13.01,2013-08-04 16:21:00,
2013-08-04 12:26:00,79.0,54.0,30.02,North,3,5.0,5.0,42,0.00,,BKN055,0.00,VWS V13.01,2013-08-04 16:26:00,
2013-08-04 12:30:00,79.2,52.8,30.02,NNE,17,6.7,7.8,40,0.00,,BKN055,0.00,VWS V13.01,2013-08-04 16:30:00,
2013-08-04 12:35:00,78.4,52.1,30.02,North,1,5.0,7.8,40,0.00,,BKN055,0.00,VWS V13.01,2013-08-04 16:35:00,
2013-08-04 12:41:00,78.3,52.0,30.02,NNW,339,9.5,10.3,40,0.00,,BKN055,0.00,VWS V13.01,2013-08-04 16:41:00,
2013-08-04 12:45:00,77.9,51.7,30.02,NNE,16,6.2,7.8,40,0.00,,BKN055,0.00,VWS V13.01,2013-08-04 16:45:00,
2013-08-04 12:51:00,78.4,52.1,30.02,NNW,329,3.9,13.1,40,0.00,,BKN055,0.00,VWS V13.01,2013-08-04 16:51:00,
2013-08-04 12:56:00,78.6,52.3,30.02,NNW,345,10.1,12.6,40,0.00,,BKN055,0.00,VWS V13.01,2013-08-04 16:56:00,
2013-08-04 13:01:00,79.0,52.6,30.02,West,279,3.9,8.4,40,0.00,,SCT075,0.00,VWS V13.01,2013-08-04 17:01:00,
2013-08-04 13:06:00,79.0,52.6,30.02,West,267,6.2,10.1,40,0.00,,SCT075,0.00,VWS V13.01,2013-08-04 17:06:00,
2013-08-04 13:11:00,79.2,52.8,30.02,North,10,3.9,6.7,40,0.00,,SCT075,0.00,VWS V13.01,2013-08-04 17:11:00,
2013-08-04 13:16:00,79.5,53.1,30.02,North,353,4.5,7.8,40,0.00,,SCT075,0.00,VWS V13.01,2013-08-04 17:16:00,
2013-08-04 13:21:00,79.5,53.1,30.02,WNW,290,10.1,10.1,40,0.00,,BKN075,0.00,VWS V13.01,2013-08-04 17:21:00,
2013-08-04 13:26:00,79.2,52.8,30.02,West,278,3.9,7.8,40,0.00,,BKN075,0.00,VWS V13.01,2013-08-04 17:26:00,
2013-08-04 13:31:00,79.5,53.1,30.02,NNE,25,9.5,10.3,40,0.00,,BKN075,0.00,VWS V13.01,2013-08-04 17:31:00,
2013-08-04 13:36:00,79.9,53.4,30.02,WNW,291,10.1,10.1,40,0.00,,BKN075,0.00,VWS V13.01,2013-08-04 17:36:00,
2013-08-04 13:41:00,80.4,53.9,30.02,North,2,13.1,13.1,40,0.00,,BKN080,0.00,VWS V13.01,2013-08-04 17:41:00,
2013-08-04 13:46:00,80.4,53.9,30.02,West,280,7.3,9.5,40,0.00,,BKN080,0.00,VWS V13.01,2013-08-04 17:46:00,
2013-08-04 13:51:00,80.6,53.4,30.02,WNW,291,11.5,11.5,39,0.00,,BKN080,0.00,VWS V13.01,2013-08-04 17:51:00,
2013-08-04 13:56:00,80.8,53.5,30.02,North,6,9.5,10.9,39,0.00,,BKN080,0.00,VWS V13.01,2013-08-04 17:56:00,
2013-08-04 14:01:00,80.4,53.9,30.02,North,353,15.4,15.4,40,0.00,,SCT080,0.00,VWS V13.01,2013-08-04 18:01:00,
2013-08-04 14:06:00,80.1,53.6,30.02,North,353,6.7,10.3,40,0.00,,SCT080,0.00,VWS V13.01,2013-08-04 18:06:00,
2013-08-04 14:11:00,79.7,53.3,30.02,North,10,6.2,10.1,40,0.00,,SCT080,0.00,VWS V13.01,2013-08-04 18:11:00,
2013-08-04 14:16:00,79.9,53.4,30.02,NNE,32,7.8,13.7,40,0.00,,SCT080,0.00,VWS V13.01,2013-08-04 18:16:00,
2013-08-04 14:21:00,79.9,53.4,30.02,North,3,3.9,7.3,40,0.00,,BKN080,0.00,VWS V13.01,2013-08-04 18:21:00,
2013-08-04 14:26:00,80.4,53.9,29.99,North,357,6.7,7.8,40,0.00,,BKN080,0.00,VWS V13.01,2013-08-04 18:26:00,
2013-08-04 14:31:00,79.9,53.4,29.99,North,3,7.3,10.1,40,0.00,,BKN080,0.00,VWS V13.01,2013-08-04 18:31:00,
2013-08-04 14:36:00,79.5,53.1,29.99,West,278,10.3,10.3,40,0.00,,BKN080,0.00,VWS V13.01,2013-08-04 18:36:00,
2013-08-04 14:41:00,79.9,53.4,29.99,West,265,7.3,7.8,40,0.00,,SCT080,0.00,VWS V13.01,2013-08-04 18:41:00,
2013-08-04 14:46:00,80.2,53.8,29.99,WNW,288,7.3,11.5,40,0.00,,SCT080,0.00,VWS V13.01,2013-08-04 18:46:00,
2013-08-04 14:51:00,80.8,53.5,29.99,North,357,6.7,6.7,39,0.00,,SCT080,0.00,VWS V13.01,2013-08-04 18:51:00,
2013-08-04 14:56:00,80.8,53.5,29.99,WSW,248,7.8,8.4,39,0.00,,SCT080,0.00,VWS V13.01,2013-08-04 18:56:00,
2013-08-04 15:01:00,81.0,53.7,29.99,West,281,6.7,7.8,39,0.00,,SCT090,0.00,VWS V13.01,2013-08-04 19:01:00,
2013-08-04 15:06:00,81.5,54.2,29.99,West,273,7.3,7.3,39,0.00,,SCT090,0.00,VWS V13.01,2013-08-04 19:06:00,
2013-08-04 15:11:00,82.0,54.7,29.99,North,9,3.9,10.1,39,0.00,,SCT090,0.00,VWS V13.01,2013-08-04 19:11:00,
2013-08-04 15:16:00,82.0,54.7,29.99,WNW,300,12.6,12.6,39,0.00,,SCT090,0.00,VWS V13.01,2013-08-04 19:16:00,
2013-08-04 15:21:00,81.9,54.5,29.99,WNW,288,4.5,7.3,39,0.00,,SCT065,0.00,VWS V13.01,2013-08-04 19:21:00,
2013-08-04 15:26:00,81.3,54.0,29.99,North,6,6.7,9.5,39,0.00,,SCT065,0.00,VWS V13.01,2013-08-04 19:26:00,
2013-08-04 15:31:00,79.9,53.4,29.99,NNE,19,9.5,9.5,40,0.00,,SCT065,0.00,VWS V13.01,2013-08-04 19:31:00,
2013-08-04 15:36:00,79.0,52.6,29.99,NNE,30,6.7,9.5,40,0.00,,SCT065,0.00,VWS V13.01,2013-08-04 19:36:00,
2013-08-04 15:41:00,78.8,52.5,29.99,North,2,5.0,10.1,40,0.00,,SCT065,0.00,VWS V13.01,2013-08-04 19:41:00,
2013-08-04 15:46:00,78.8,52.5,29.99,North,6,3.9,7.3,40,0.00,,SCT065,0.00,VWS V13.01,2013-08-04 19:46:00,
2013-08-04 15:51:00,79.0,52.6,29.99,North,7,6.2,6.2,40,0.00,,SCT065,0.00,VWS V13.01,2013-08-04 19:51:00,
2013-08-04 15:56:00,79.5,53.1,29.99,West,271,7.3,10.9,40,0.00,,SCT065,0.00,VWS V13.01,2013-08-04 19:56:00,
2013-08-04 16:01:00,80.1,53.6,29.99,WSW,239,10.1,11.5,40,0.00,,BKN095,0.00,VWS V13.01,2013-08-04 20:01:00,
2013-08-04 16:06:00,80.2,53.8,29.99,SW,235,3.9,7.3,40,0.00,,BKN095,0.00,VWS V13.01,2013-08-04 20:06:00,
2013-08-04 16:11:00,80.2,53.8,29.99,West,270,3.9,12.0,40,0.00,,BKN095,0.00,VWS V13.01,2013-08-04 20:11:00,
2013-08-04 16:16:00,80.4,53.9,29.99,WSW,248,10.3,10.3,40,0.00,,BKN095,0.00,VWS V13.01,2013-08-04 20:16:00,
2013-08-04 16:21:00,80.2,53.8,29.99,WNW,299,10.9,10.9,40,0.00,,SCT095,0.00,VWS V13.01,2013-08-04 20:21:00,
2013-08-04 16:26:00,80.4,53.9,29.99,SW,223,12.6,12.6,40,0.00,,SCT095,0.00,VWS V13.01,2013-08-04 20:26:00,
2013-08-04 16:31:00,80.2,53.8,29.99,North,0,7.8,10.1,40,0.00,,SCT095,0.00,VWS V13.01,2013-08-04 20:31:00,
2013-08-04 16:36:00,79.2,52.8,29.99,NNE,15,9.5,15.4,40,0.00,,SCT095,0.00,VWS V13.01,2013-08-04 20:36:00,
2013-08-04 16:41:00,78.4,52.1,29.99,NNW,346,3.4,7.8,40,0.00,,SCT095,0.00,VWS V13.01,2013-08-04 20:41:00,
2013-08-04 16:46:00,78.6,52.3,29.99,North,357,9.5,10.3,40,0.00,,SCT095,0.00,VWS V13.01,2013-08-04 20:46:00,
2013-08-04 16:51:00,78.3,52.0,29.99,NNW,348,4.5,13.7,40,0.00,,SCT095,0.00,VWS V13.01,2013-08-04 20:51:00,
2013-08-04 16:56:00,78.1,51.8,29.99,NW,304,10.1,10.1,40,0.00,,SCT095,0.00,VWS V13.01,2013-08-04 20:56:00,
2013-08-04 17:01:00,78.1,51.8,29.99,WNW,297,5.0,9.5,40,0.00,,SCT095,0.00,VWS V13.01,2013-08-04 21:01:00,
2013-08-04 17:06:00,78.1,51.8,29.99,WNW,294,5.0,7.8,40,0.00,,SCT095,0.00,VWS V13.01,2013-08-04 21:06:00,
2013-08-04 17:11:00,78.1,51.8,29.99,West,276,5.0,7.8,40,0.00,,SCT095,0.00,VWS V13.01,2013-08-04 21:11:00,
2013-08-04 17:16:00,78.1,51.8,29.99,North,0,5.0,6.2,40,0.00,,SCT095,0.00,VWS V13.01,2013-08-04 21:16:00,
2013-08-04 17:21:00,77.9,51.7,29.99,West,266,9.5,9.5,40,0.00,,CLR,0.00,VWS V13.01,2013-08-04 21:21:00,
2013-08-04 17:26:00,77.5,51.3,29.99,North,353,4.5,9.5,40,0.00,,CLR,0.00,VWS V13.01,2013-08-04 21:26:00,
2013-08-04 17:31:00,77.7,51.5,29.99,West,276,7.3,10.3,40,0.00,,CLR,0.00,VWS V13.01,2013-08-04 21:31:00,
2013-08-04 17:36:00,77.9,51.7,29.99,NNE,17,3.4,7.3,40,0.00,,CLR,0.00,VWS V13.01,2013-08-04 21:36:00,
2013-08-04 17:41:00,78.1,51.8,29.99,NNW,346,7.3,7.8,40,0.00,,CLR,0.00,VWS V13.01,2013-08-04 21:41:00,
2013-08-04 17:46:00,77.9,51.7,29.99,WNW,286,7.8,13.7,40,0.00,,CLR,0.00,VWS V13.01,2013-08-04 21:46:00,
2013-08-04 17:49:00,77.9,51.7,29.99,NNE,16,7.8,8.4,40,0.00,,CLR,0.00,VWS V13.01,2013-08-04 21:49:00,
2013-08-04 17:54:00,77.5,51.3,29.99,North,1,7.3,9.5,40,0.00,,CLR,0.00,VWS V13.01,2013-08-04 21:54:00,
2013-08-04 17:59:00,77.0,50.9,30.02,North,5,9.5,9.5,40,0.00,,CLR,0.00,VWS V13.01,2013-08-04 21:59:00,
2013-08-04 18:04:00,76.8,50.7,30.02,NNE,22,4.5,7.3,40,0.00,,CLR,0.00,VWS V13.01,2013-08-04 22:04:00,
2013-08-04 18:09:00,76.8,50.7,30.02,NE,37,6.7,6.7,40,0.00,,CLR,0.00,VWS V13.01,2013-08-04 22:09:00,
2013-08-04 18:14:00,76.6,50.5,30.02,North,1,10.3,10.3,40,0.00,,CLR,0.00,VWS V13.01,2013-08-04 22:14:00,
2013-08-04 18:19:00,76.5,50.4,30.02,North,2,3.4,6.7,40,0.00,,CLR,0.00,VWS V13.01,2013-08-04 22:19:00,
2013-08-04 18:24:00,76.5,50.4,30.02,North,357,5.0,9.5,40,0.00,,CLR,0.00,VWS V13.01,2013-08-04 22:24:00,
2013-08-04 18:29:00,76.3,50.2,30.02,NNE,17,5.0,7.8,40,0.00,,CLR,0.00,VWS V13.01,2013-08-04 22:29:00,
2013-08-04 18:34:00,76.1,50.0,30.02,NNW,337,10.1,10.9,40,0.00,,CLR,0.00,VWS V13.01,2013-08-04 22:34:00,
2013-08-04 18:39:00,75.7,49.7,30.02,NE,52,4.5,7.8,40,0.00,,CLR,0.00,VWS V13.01,2013-08-04 22:39:00,
2013-08-04 18:44:00,75.7,49.7,30.02,ENE,60,4.5,10.1,40,0.00,,CLR,0.00,VWS V13.01,2013-08-04 22:44:00,
2013-08-04 18:49:00,75.4,49.4,30.02,East,89,3.4,5.0,40,0.00,,CLR,0.00,VWS V13.01,2013-08-04 22:49:00,
2013-08-04 18:54:00,75.4,49.4,30.02,NNE,13,5.0,7.8,40,0.00,,CLR,0.00,VWS V13.01,2013-08-04 22:54:00,
2013-08-04 18:59:00,75.0,49.8,30.02,NNE,25,3.9,6.7,41,0.00,,CLR,0.00,VWS V13.01,2013-08-04 22:59:00,
2013-08-04 19:04:00,74.7,49.4,30.02,North,357,3.4,4.5,41,0.00,,CLR,0.00,VWS V13.01,2013-08-04 23:04:00,
2013-08-04 19:09:00,74.3,49.1,30.02,North,0,3.9,5.0,41,0.00,,CLR,0.00,VWS V13.01,2013-08-04 23:09:00,
2013-08-04 19:14:00,74.1,48.9,30.02,North,357,3.9,3.9,41,0.00,,CLR,0.00,VWS V13.01,2013-08-04 23:14:00,
2013-08-04 19:19:00,73.8,49.9,30.02,North,10,5.0,6.7,43,0.00,,CLR,0.00,VWS V13.01,2013-08-04 23:19:00,
2013-08-04 19:24:00,73.4,49.6,30.02,North,357,4.5,6.7,43,0.00,,CLR,0.00,VWS V13.01,2013-08-04 23:24:00,
2013-08-04 19:29:00,73.2,50.0,30.02,North,7,5.6,7.3,44,0.00,,CLR,0.00,VWS V13.01,2013-08-04 23:29:00,
2013-08-04 19:34:00,72.9,47.8,30.02,North,357,7.3,7.3,41,0.00,,CLR,0.00,VWS V13.01,2013-08-04 23:34:00,
2013-08-04 19:39:00,72.7,47.7,30.02,North,357,7.8,9.5,41,0.00,,CLR,0.00,VWS V13.01,2013-08-04 23:39:00,
2013-08-04 19:44:00,72.3,47.3,30.02,North,353,3.9,5.0,41,0.00,,CLR,0.00,VWS V13.01,2013-08-04 23:44:00,
2013-08-04 19:49:00,72.0,47.0,30.02,North,5,4.5,7.8,41,0.00,,CLR,0.00,VWS V13.01,2013-08-04 23:49:00,
2013-08-04 19:54:00,71.6,46.7,30.02,North,4,3.4,5.0,41,0.00,,CLR,0.00,VWS V13.01,2013-08-04 23:54:00,
2013-08-04 19:59:00,71.1,46.8,30.02,North,0,3.9,3.9,42,0.00,,CLR,0.00,VWS V13.01,2013-08-04 23:59:00,
2013-08-04 20:04:00,70.7,46.5,30.02,NNW,341,0.0,3.4,42,0.00,,CLR,0.00,VWS V13.01,2013-08-05 00:04:00,
2013-08-04 20:09:00,70.3,46.2,30.02,WNW,298,0.0,0.0,42,0.00,,CLR,0.00,VWS V13.01,2013-08-05 00:09:00,
2013-08-04 20:14:00,69.8,46.9,30.02,North,7,3.4,3.4,44,0.00,,CLR,0.00,VWS V13.01,2013-08-05 00:14:00,
2013-08-04 20:19:00,69.4,47.2,30.02,NW,309,0.0,0.0,45,0.00,,CLR,0.00,VWS V13.01,2013-08-05 00:19:00,
2013-08-04 20:24:00,69.1,46.9,30.02,West,261,0.0,3.4,45,0.00,,CLR,0.00,VWS V13.01,2013-08-05 00:24:00,
2013-08-04 20:29:00,68.9,46.7,30.02,North,2,2.8,3.4,45,0.00,,CLR,0.00,VWS V13.01,2013-08-05 00:29:00,
2013-08-04 20:34:00,68.5,46.4,30.02,North,2,3.4,3.4,45,0.00,,CLR,0.00,VWS V13.01,2013-08-05 00:34:00,
2013-08-04 20:39:00,68.2,47.2,30.02,SSE,151,2.8,2.8,47,0.00,,CLR,0.00,VWS V13.01,2013-08-05 00:39:00,
2013-08-04 20:44:00,67.8,46.9,30.02,SSW,203,0.0,0.0,47,0.00,,CLR,0.00,VWS V13.01,2013-08-05 00:44:00,
2013-08-04 20:49:00,67.1,46.8,30.02,NE,43,3.9,3.9,48,0.00,,CLR,0.00,VWS V13.01,2013-08-05 00:49:00,
2013-08-04 20:54:00,66.6,46.3,30.02,North,3,0.0,0.0,48,0.00,,CLR,0.00,VWS V13.01,2013-08-05 00:54:00,
2013-08-04 20:59:00,66.4,46.1,30.05,NW,318,0.0,0.0,48,0.00,,CLR,0.00,VWS V13.01,2013-08-05 00:59:00,
2013-08-04 21:04:00,66.4,46.1,30.05,West,271,2.8,3.9,48,0.00,,CLR,0.00,VWS V13.01,2013-08-05 01:04:00,
2013-08-04 21:09:00,66.2,46.0,30.05,West,265,4.5,5.0,48,0.00,,CLR,0.00,VWS V13.01,2013-08-05 01:09:00,
2013-08-04 21:14:00,65.8,46.2,30.05,WSW,258,3.4,5.0,49,0.00,,CLR,0.00,VWS V13.01,2013-08-05 01:14:00,
2013-08-04 21:19:00,65.5,46.4,30.05,WSW,255,2.8,4.5,50,0.00,,CLR,0.00,VWS V13.01,2013-08-05 01:19:00,
2013-08-04 21:24:00,65.1,46.0,30.05,West,276,0.0,0.0,50,0.00,,CLR,0.00,VWS V13.01,2013-08-05 01:24:00,
2013-08-04 21:29:00,64.6,45.5,30.05,West,276,0.0,0.0,50,0.00,,CLR,0.00,VWS V13.01,2013-08-05 01:29:00,
2013-08-04 21:34:00,64.0,45.6,30.05,West,276,0.0,0.0,51,0.00,,CLR,0.00,VWS V13.01,2013-08-05 01:34:00,
2013-08-04 21:39:00,63.5,45.1,30.05,West,276,0.0,0.0,51,0.00,,CLR,0.00,VWS V13.01,2013-08-05 01:39:00,
2013-08-04 21:44:00,63.1,45.2,30.05,West,276,0.0,0.0,52,0.00,,CLR,0.00,VWS V13.01,2013-08-05 01:44:00,
2013-08-04 21:49:00,62.4,45.6,30.05,West,276,2.8,2.8,54,0.00,,CLR,0.00,VWS V13.01,2013-08-05 01:49:00,
2013-08-04 21:54:00,61.9,45.1,30.05,West,276,0.0,0.0,54,0.00,,CLR,0.00,VWS V13.01,2013-08-05 01:54:00,
2013-08-04 21:59:00,61.7,45.9,30.05,West,266,3.4,6.7,56,0.00,,CLR,0.00,VWS V13.01,2013-08-05 01:59:00,
2013-08-04 22:04:00,61.7,45.9,30.05,West,273,3.4,4.5,56,0.00,,CLR,0.00,VWS V13.01,2013-08-05 02:04:00,
2013-08-04 22:09:00,61.9,46.0,30.05,West,273,3.9,4.5,56,0.00,,CLR,0.00,VWS V13.01,2013-08-05 02:09:00,
2013-08-04 22:14:00,61.9,46.0,30.08,West,271,3.9,4.5,56,0.00,,CLR,0.00,VWS V13.01,2013-08-05 02:14:00,
2013-08-04 22:19:00,61.9,46.0,30.08,West,274,3.4,3.4,56,0.00,,CLR,0.00,VWS V13.01,2013-08-05 02:19:00,
2013-08-04 22:24:00,61.9,46.0,30.08,West,266,2.8,3.9,56,0.00,,CLR,0.00,VWS V13.01,2013-08-05 02:24:00,
2013-08-04 22:29:00,61.7,45.9,30.08,WNW,300,0.0,0.0,56,0.00,,CLR,0.00,VWS V13.01,2013-08-05 02:29:00,
2013-08-04 22:34:00,61.3,46.0,30.08,NW,304,0.0,0.0,57,0.00,,CLR,0.00,VWS V13.01,2013-08-05 02:34:00,
2013-08-04 22:39:00,61.2,46.7,30.08,West,262,0.0,0.0,59,0.00,,CLR,0.00,VWS V13.01,2013-08-05 02:39:00,
2013-08-04 22:44:00,60.6,46.7,30.08,WSW,253,2.8,3.4,60,0.00,,CLR,0.00,VWS V13.01,2013-08-05 02:44:00,
2013-08-04 22:49:00,60.1,45.7,30.08,WSW,249,0.0,0.0,59,0.00,,CLR,0.00,VWS V13.01,2013-08-05 02:49:00,
2013-08-04 22:54:00,60.1,45.7,30.08,WSW,249,0.0,0.0,59,0.00,,CLR,0.00,VWS V13.01,2013-08-05 02:54:00,
2013-08-04 22:59:00,59.9,45.5,30.08,WSW,249,0.0,0.0,59,0.00,,CLR,0.00,VWS V13.01,2013-08-05 02:59:00,
2013-08-04 23:04:00,59.7,45.4,30.08,WSW,249,0.0,0.0,59,0.00,,CLR,0.00,VWS V13.01,2013-08-05 03:04:00,
2013-08-04 23:09:00,59.5,45.7,30.08,WSW,249,0.0,0.0,60,0.00,,CLR,0.00,VWS V13.01,2013-08-05 03:09:00,
2013-08-04 23:14:00,59.2,45.3,30.08,WSW,249,0.0,0.0,60,0.00,,CLR,0.00,VWS V13.01,2013-08-05 03:14:00,
2013-08-04 23:19:00,59.2,45.3,30.08,WSW,249,0.0,0.0,60,0.00,,CLR,0.00,VWS V13.01,2013-08-05 03:19:00,
2013-08-04 23:24:00,59.2,45.3,30.08,WSW,253,0.0,0.0,60,0.00,,CLR,0.00,VWS V13.01,2013-08-05 03:24:00,
2013-08-04 23:29:00,59.4,45.5,30.08,WSW,253,0.0,0.0,60,0.00,,CLR,0.00,VWS V13.01,2013-08-05 03:29:00,
2013-08-04 23:34:00,59.7,45.8,30.08,WNW,298,0.0,0.0,60,0.00,,CLR,0.00,VWS V13.01,2013-08-05 03:34:00,
2013-08-04 23:39:00,59.7,45.8,30.08,WNW,298,0.0,0.0,60,0.00,,CLR,0.00,VWS V13.01,2013-08-05 03:39:00,
2013-08-04 23:44:00,59.4,45.5,30.08,WNW,298,0.0,0.0,60,0.00,,CLR,0.00,VWS V13.01,2013-08-05 03:44:00,
2013-08-04 23:49:00,59.2,45.3,30.08,WNW,288,0.0,0.0,60,0.00,,CLR,0.00,VWS V13.01,2013-08-05 03:49:00,
2013-08-04 23:54:00,58.6,44.8,30.08,West,275,0.0,0.0,60,0.00,,CLR,0.00,VWS V13.01,2013-08-05 03:54:00,
2013-08-04 23:59:00,58.3,45.3,30.08,WSW,254,3.9,3.9,62,0.00,,CLR,0.00,VWS V13.01,2013-08-05 03:59:00,